Time;durP1;ratioP1;P1;durP2;ratioP2;P2;SDS_P1;SDS_P2;PMS_P1;PMS_P2;Temp;Humidity;BMP_temperature;BMP_pressure;BME280_temperature;BME280_humidity;BME280_pressure;Samples;Min_cycle;Max_cycle;Signal;HPM_P1;HPM_P2
2022/06/11 00:01:13;;;;;;;5.23;3.80;;;18.70;99.90;;;;;;4930263;29;20663;-67
2022/06/11 00:03:41;;;;;;;8.17;4.20;;;18.80;99.90;;;;;;4933565;29;20672;-65
2022/06/11 00:06:08;;;;;;;7.33;4.33;;;18.70;99.90;;;;;;4937106;29;20668;-65
2022/06/11 00:08:35;;;;;;;6.37;4.07;;;18.70;99.90;;;;;;4934173;29;20624;-65
2022/06/11 00:11:02;;;;;;;10.50;4.20;;;18.70;99.90;;;;;;4930300;29;20644;-65
2022/06/11 00:13:29;;;;;;;6.07;4.33;;;18.70;99.90;;;;;;4932126;29;20651;-66
2022/06/11 00:15:56;;;;;;;6.43;4.80;;;18.70;99.90;;;;;;4934903;29;20747;-65
2022/06/11 00:18:24;;;;;;;5.03;4.20;;;18.60;99.90;;;;;;4934732;29;20731;-63
2022/06/11 00:20:51;;;;;;;4.83;4.10;;;18.60;99.90;;;;;;4936788;29;20675;-65
2022/06/11 00:23:19;;;;;;;7.00;4.20;;;18.60;99.90;;;;;;4934450;29;20668;-65
2022/06/11 00:25:46;;;;;;;5.87;4.00;;;18.50;99.90;;;;;;4934960;29;21461;-64
2022/06/11 00:28:14;;;;;;;8.47;5.37;;;18.50;99.90;;;19.06;nan;101215.25;4933837;29;21225;-63
2022/06/11 00:30:41;;;;;;;4.87;4.00;;;18.50;99.90;;;19.09;nan;101217.56;4933971;29;20640;-65
2022/06/11 00:33:08;;;;;;;7.40;4.27;;;18.40;99.90;;;19.09;nan;101221.06;4935412;29;20617;-67
2022/06/11 00:35:39;;;;;;;5.50;4.50;;;18.40;99.90;;;19.08;nan;101218.56;4932193;29;20858;-63
2022/06/11 00:38:07;;;;;;;5.87;4.43;;;18.40;99.90;;;19.03;nan;101211.09;4935114;29;20629;-67
2022/06/11 00:40:37;;;;;;;6.10;4.90;;;18.40;99.90;;;19.01;nan;101212.22;4932053;29;20645;-66
2022/06/11 00:43:06;;;;;;;10.70;5.10;;;18.30;99.90;;;19.02;nan;101213.84;4931097;29;20642;-66
2022/06/11 00:45:59;;;;;;;5.53;4.50;;;18.30;99.90;;;19.02;nan;101208.56;4924606;29;20626;-64
2022/06/11 00:48:33;;;;;;;6.43;4.27;;;18.30;99.90;;;18.98;nan;101210.69;4933829;29;20644;-65
2022/06/11 00:51:18;;;;;;;5.93;5.07;;;18.30;99.90;;;18.88;nan;101212.59;4934426;29;21307;-64
2022/06/11 00:54:11;;;;;;;7.27;4.30;;;18.20;99.90;;;18.88;nan;101209.09;4932292;29;20644;-65
2022/06/11 00:56:46;;;;;;;7.60;4.80;;;18.20;99.90;;;18.85;nan;101207.59;4933331;29;20653;-65
2022/06/11 00:59:20;;;;;;;6.00;4.57;;;18.20;99.90;;;18.78;nan;101203.91;4908832;29;20640;-67
2022/06/11 01:01:48;;;;;;;7.20;5.20;;;18.10;99.90;;;18.74;nan;101199.84;4934236;29;20652;-67
2022/06/11 01:04:48;;;;;;;10.23;5.03;;;18.10;99.90;;;18.67;nan;101209.38;4933228;29;20688;-65
2022/06/11 01:07:37;;;;;;;8.83;4.70;;;18.00;99.90;;;18.68;nan;101199.63;4933086;29;21265;-66
2022/06/11 01:10:42;;;;;;;8.60;4.97;;;18.00;99.90;;;18.61;nan;101204.69;4934353;29;21099;-66
2022/06/11 01:13:31;;;;;;;5.60;4.53;;;18.00;99.90;;;18.57;nan;101206.78;4912071;29;21257;-67
2022/06/11 01:16:42;;;;;;;6.67;4.63;;;17.90;99.90;;;18.52;nan;101205.56;4933107;29;21041;-64
2022/06/11 01:19:42;;;;;;;11.37;4.90;;;17.80;99.90;;;18.43;nan;101203.78;4933140;29;21233;-65
2022/06/11 01:22:50;;;;;;;6.00;4.50;;;17.70;99.90;;;18.40;nan;101210.19;4934077;29;21179;-67
2022/06/11 01:25:34;;;;;;;5.83;4.17;;;17.70;99.90;;;18.40;nan;101199.59;4933368;29;20692;-64
2022/06/11 01:28:49;;;;;;;6.30;4.30;;;17.70;99.90;;;18.37;nan;101205.19;4933884;29;20641;-64
2022/06/11 01:31:23;;;;;;;6.60;3.97;;;17.70;99.90;;;18.36;nan;101194.75;4927383;29;20637;-64
2022/06/11 01:34:56;;;;;;;5.50;4.30;;;17.70;99.90;;;18.30;nan;101206.75;4932347;29;20691;-65
2022/06/11 01:37:30;;;;;;;8.03;4.30;;;17.60;99.90;;;18.18;nan;101207.09;4949221;29;20671;-66
2022/06/11 01:40:12;;;;;;;7.63;4.77;;;17.50;99.90;;;18.06;nan;101202.97;4932629;29;20625;-64
2022/06/11 01:42:53;;;;;;;5.33;4.30;;;17.40;99.90;;;17.98;nan;101194.91;4932757;29;21230;-64
2022/06/11 01:45:36;;;;;;;8.40;5.40;;;17.30;99.90;;;17.97;nan;101209.13;4931256;29;21237;-64
2022/06/11 01:48:09;;;;;;;7.70;5.10;;;17.30;99.90;;;17.95;nan;101205.78;4927321;29;20625;-65
2022/06/11 01:50:51;;;;;;;9.20;4.60;;;17.30;99.90;;;17.99;nan;101213.28;4933585;29;20664;-65
2022/06/11 01:53:37;;;;;;;5.30;3.83;;;17.30;99.90;;;17.98;nan;101216.88;4934474;29;20632;-66
2022/06/11 01:56:46;;;;;;;5.53;4.27;;;17.40;99.90;;;18.00;nan;101209.66;4929791;29;20668;-65
2022/06/11 02:00:17;;;;;;;3.67;3.37;;;17.30;99.90;;;17.89;nan;101207.16;4901198;29;20621;-67
2022/06/11 02:03:16;;;;;;;5.70;4.63;;;17.20;99.90;;;17.91;nan;101205.22;4967093;28;20642;-66
2022/06/11 02:06:08;;;;;;;5.73;4.40;;;17.30;99.90;;;17.94;nan;101204.09;4967995;28;20675;-65
2022/06/11 02:08:52;;;;;;;8.20;3.63;;;17.30;99.90;;;17.96;nan;101212.72;4938144;28;20644;-66
2022/06/11 02:11:32;;;;;;;5.47;3.93;;;17.30;99.90;;;17.91;nan;101202.56;4932874;29;20641;-67
2022/06/11 02:14:44;;;;;;;4.03;3.60;;;17.30;99.90;;;17.91;nan;101209.69;4931716;29;20652;-65
2022/06/11 02:17:36;;;;;;;4.07;3.67;;;17.20;99.90;;;17.93;nan;101207.75;4932592;29;20668;-66
2022/06/11 02:20:17;;;;;;;6.90;4.10;;;17.20;99.90;;;17.93;nan;101207.75;4931384;29;20622;-64
2022/06/11 02:23:06;;;;;;;5.00;4.27;;;17.30;99.90;;;17.92;nan;101216.63;4931539;29;21186;-63
2022/06/11 02:25:38;;;;;;;3.73;3.40;;;17.30;99.90;;;17.87;nan;101209.13;4931951;29;20669;-65
2022/06/11 02:28:24;;;;;;;9.33;4.67;;;17.20;99.90;;;17.91;nan;101209.69;4931879;29;20636;-64
2022/06/11 02:30:53;;;;;;;4.17;3.73;;;17.30;99.90;;;17.93;nan;101208.53;4927725;29;20652;-65
2022/06/11 02:33:22;;;;;;;9.90;4.27;;;17.30;99.90;;;17.88;nan;101208.16;4931841;29;21167;-63
2022/06/11 02:36:10;;;;;;;7.77;5.53;;;17.20;99.90;;;17.90;nan;101214.13;4933146;29;20676;-67
2022/06/11 02:38:38;;;;;;;4.60;4.07;;;17.20;99.90;;;17.94;nan;101219.94;4925687;29;20652;-64
2022/06/11 02:41:11;;;;;;;5.30;4.17;;;17.30;99.90;;;17.93;nan;101218.31;4933014;29;20633;-65
2022/06/11 02:43:38;;;;;;;3.93;3.53;;;17.30;99.90;;;17.96;nan;101221.47;4931820;29;21274;-64
2022/06/11 02:48:53;;;;;;;3.90;3.60;;;17.30;99.90;;;17.96;nan;101221.47;4932245;29;20629;-65
2022/06/11 02:51:22;;;;;;;4.00;3.60;;;17.30;99.90;;;17.97;nan;101219.69;4932594;29;20617;-66
2022/06/11 02:53:50;;;;;;;4.83;4.10;;;17.30;99.90;;;17.97;nan;101217.03;4927260;29;20637;-64
2022/06/11 02:56:17;;;;;;;2.90;2.70;;;17.30;99.90;;;17.95;nan;101218.97;4926265;29;20661;-64
2022/06/11 02:58:44;;;;;;;4.10;3.23;;;17.30;99.90;;;17.95;nan;101217.19;4933400;29;20640;-64
2022/06/11 03:01:19;;;;;;;3.27;3.03;;;17.30;99.90;;;17.95;nan;101216.34;4933369;29;20629;-64
2022/06/11 03:03:48;;;;;;;3.90;3.50;;;17.30;99.90;;;17.94;nan;101212.88;4934221;29;20639;-64
2022/06/11 03:06:18;;;;;;;6.47;3.50;;;17.30;99.90;;;17.98;nan;101218.69;4932615;29;20852;-66
2022/06/11 03:08:46;;;;;;;4.00;3.60;;;17.40;99.90;;;18.01;nan;101221.06;4928527;29;20656;-67
2022/06/11 03:11:14;;;;;;;3.20;2.90;;;17.40;99.90;;;18.05;nan;101222.41;4927822;29;20625;-64
2022/06/11 03:13:41;;;;;;;3.57;3.27;;;17.40;99.90;;;18.08;nan;101228.25;4931336;29;20641;-64
2022/06/11 03:16:08;;;;;;;3.80;3.17;;;17.50;99.90;;;18.05;nan;101223.25;4931586;29;20653;-66
2022/06/11 03:18:35;;;;;;;4.67;3.50;;;17.40;99.90;;;18.00;nan;101228.13;4930735;29;21274;-65
2022/06/11 03:21:02;;;;;;;3.63;3.33;;;17.40;99.90;;;17.97;nan;101222.31;4932228;29;20986;-64
2022/06/11 03:23:30;;;;;;;4.20;3.37;;;17.30;99.90;;;17.92;nan;101220.09;4931814;29;21015;-64
2022/06/11 03:25:57;;;;;;;4.37;3.50;;;17.30;99.90;;;17.93;nan;101221.75;4931727;29;20673;-63
2022/06/11 03:28:28;;;;;;;3.60;3.30;;;17.30;99.90;;;18.02;nan;101234.09;4929887;29;20740;-64
2022/06/11 03:30:56;;;;;;;5.70;3.37;;;17.40;99.90;;;18.06;nan;101230.19;4932502;29;20988;-63
2022/06/11 03:33:24;;;;;;;3.80;3.47;;;17.40;99.90;;;18.13;nan;101227.81;4931434;29;20617;-65
2022/06/11 03:35:52;;;;;;;5.47;3.30;;;17.50;99.90;;;18.16;nan;101233.66;4929886;29;20677;-65
2022/06/11 03:38:20;;;;;;;5.93;3.37;;;17.50;99.90;;;18.16;nan;101240.75;4934146;29;21039;-64
2022/06/11 03:40:48;;;;;;;3.30;3.00;;;17.60;99.90;;;18.23;nan;101231.28;4928569;29;20633;-65
2022/06/11 03:43:15;;;;;;;3.50;3.20;;;17.60;99.90;;;18.29;nan;101242.06;4932969;29;20656;-67
2022/06/11 03:45:43;;;;;;;3.67;3.37;;;17.70;99.90;;;18.33;nan;101226.78;4911084;29;20673;-67
2022/06/11 03:48:11;;;;;;;4.37;3.33;;;17.70;99.90;;;18.42;nan;101239.94;4935635;29;20620;-64
2022/06/11 03:50:40;;;;;;;4.53;3.40;;;17.80;99.90;;;18.47;nan;101237.72;4936159;29;20644;-64
2022/06/11 03:53:10;;;;;;;3.03;2.83;;;17.90;99.90;;;18.62;nan;101242.50;4934804;29;21008;-66
2022/06/11 03:55:41;;;;;;;3.10;2.80;;;18.00;99.90;;;18.78;nan;101250.66;4934535;29;21026;-64
2022/06/11 03:58:10;;;;;;;4.60;3.40;;;18.20;99.90;;;18.93;nan;101242.03;4932901;29;20656;-64
2022/06/11 04:03:25;;;;;;;6.17;4.27;;;18.40;99.90;;;18.99;nan;101254.69;4935208;29;20628;-64
2022/06/11 04:05:54;;;;;;;6.80;4.20;;;18.50;99.90;;;19.06;nan;101252.28;4936840;29;20677;-63
2022/06/11 04:08:24;;;;;;;9.30;4.00;;;18.50;99.90;;;19.13;nan;101262.09;4934949;29;20767;-65
2022/06/11 04:10:54;;;;;;;7.40;4.20;;;18.60;99.90;;;19.10;nan;101258.94;4934198;29;20624;-63
2022/06/11 04:13:23;;;;;;;3.90;3.60;;;18.60;99.90;;;19.06;nan;101260.22;4934155;29;20632;-67
2022/06/11 04:15:51;;;;;;;5.50;4.60;;;18.50;99.90;;;18.93;nan;101263.19;4924226;29;24455;-65
2022/06/11 04:18:35;;;;;;;4.43;4.03;;;18.50;99.90;;;18.92;nan;101261.53;4928713;29;20672;-64
2022/06/11 04:21:08;;;;;;;4.77;4.17;;;18.40;99.90;;;18.88;nan;101264.63;4933932;29;21040;-63
2022/06/11 04:23:38;;;;;;;6.90;3.77;;;18.40;99.90;;;18.86;nan;101269.25;4935899;29;20644;-66
2022/06/11 04:26:09;;;;;;;6.57;3.70;;;18.30;99.90;;;18.85;nan;101270.19;4934267;29;21022;-63
2022/06/11 04:28:37;;;;;;;6.07;3.53;;;18.20;99.90;;;18.83;nan;101267.72;4928047;29;21016;-64
2022/06/11 04:31:07;;;;;;;7.87;3.53;;;18.20;99.90;;;18.83;nan;101269.53;4933464;29;20648;-63
2022/06/11 04:33:35;;;;;;;5.37;3.97;;;18.20;99.90;;;18.85;nan;101265.75;4925708;29;20629;-63
2022/06/11 04:36:03;;;;;;;6.10;4.07;;;18.30;99.90;;;18.90;nan;101273.25;4947588;23;20994;-66
2022/06/11 04:38:31;;;;;;;8.57;3.87;;;18.30;99.90;;;18.92;nan;101269.47;4953053;29;20643;-65
2022/06/11 04:40:58;;;;;;;6.20;4.72;;;18.30;99.90;;;18.89;nan;101266.31;4940381;28;25001;-68
2022/06/11 04:43:25;;;;;;;7.15;5.03;;;18.40;99.90;;;18.85;nan;101273.69;4936361;29;24469;-67
2022/06/11 04:45:52;;;;;;;6.00;3.93;;;18.40;99.90;;;18.92;nan;101274.78;4953535;28;20608;-68
2022/06/11 04:48:19;;;;;;;6.27;4.60;;;18.40;99.90;;;18.91;nan;101270.44;4954294;28;20619;-67
2022/06/11 04:50:46;;;;;;;5.73;3.37;;;18.30;99.90;;;18.98;nan;101271.53;4952540;28;20636;-66
2022/06/11 04:53:13;;;;;;;5.77;3.83;;;18.40;99.90;;;19.02;nan;101272.03;4953391;28;20608;-64
2022/06/11 04:55:40;;;;;;;5.47;3.47;;;18.40;99.90;;;18.89;nan;101272.41;4952648;28;20651;-69
2022/06/11 04:58:07;;;;;;;4.87;3.97;;;18.30;99.90;;;19.18;nan;101266.94;4947660;28;20636;-67
2022/06/11 05:00:35;;;;;;;7.00;5.22;;;18.60;99.90;;;19.50;nan;101264.63;4932646;29;24837;-67
2022/06/11 05:03:03;;;;;;;4.40;4.00;;;19.00;99.90;;;19.71;nan;101281.03;4933203;29;20209;-68
2022/06/11 05:05:31;;;;;;;7.20;4.43;;;19.20;99.90;;;20.00;nan;101270.13;4936384;29;20665;-68
2022/06/11 05:08:00;;;;;;;6.43;5.00;;;19.50;99.90;;;20.32;nan;101291.56;4947973;29;24636;-70
2022/06/11 05:10:31;;;;;;;8.65;5.50;;;19.90;99.90;;;20.77;nan;101281.50;4952455;28;24426;-68
2022/06/11 05:13:05;;;;;;;7.93;5.40;;;20.50;99.90;;;21.27;nan;101281.53;4945906;29;24450;-69
2022/06/11 05:15:34;;;;;;;5.80;4.00;;;21.00;99.90;;;21.84;nan;101289.53;4935040;29;20209;-71
2022/06/11 05:18:01;;;;;;;4.03;3.67;;;21.60;99.90;;;22.21;nan;101300.47;4932378;29;20672;-65
2022/06/11 05:20:28;;;;;;;5.80;3.60;;;21.90;99.90;;;22.62;nan;101288.72;4934605;29;20624;-65
2022/06/11 05:22:55;;;;;;;7.75;4.40;;;22.20;99.90;;;22.72;nan;101281.34;4932164;29;24817;-68
2022/06/11 05:25:22;;;;;;;6.80;4.72;;;22.40;99.20;;;22.95;nan;101274.28;4932602;29;25047;-67
2022/06/11 05:27:49;;;;;;;8.13;4.40;;;22.60;98.70;;;23.03;nan;101276.03;4935406;29;24461;-67
2022/06/11 05:30:26;;;;;;;7.38;4.32;;;22.70;98.30;;;23.38;nan;101277.34;4951520;29;24442;-70
2022/06/11 05:32:53;;;;;;;5.67;4.23;;;23.00;98.00;;;23.40;nan;101278.00;4951400;28;24505;-68
2022/06/11 05:35:25;;;;;;;5.33;4.40;;;23.20;97.20;;;22.76;nan;101279.19;4952408;28;24441;-68
2022/06/11 05:37:56;;;;;;;8.85;4.90;;;22.70;97.40;;;22.82;nan;101273.16;4950353;29;24465;-67
2022/06/11 05:40:29;;;;;;;7.10;4.78;;;22.50;98.00;;;22.71;nan;101276.22;4946101;29;24458;-68
2022/06/11 05:42:56;;;;;;;5.68;4.80;;;22.30;98.70;;;22.36;nan;101277.47;4931339;29;24492;-68
2022/06/11 05:45:31;;;;;;;8.50;5.30;;;22.10;99.10;;;22.29;nan;101282.66;4944718;29;24454;-68
2022/06/11 05:48:05;;;;;;;6.93;4.97;;;21.90;99.60;;;21.91;nan;101275.44;4949629;29;24453;-69
2022/06/11 05:50:40;;;;;;;7.22;4.80;;;21.60;99.90;;;21.83;nan;101274.59;4950236;29;24445;-68
2022/06/11 05:53:09;;;;;;;8.00;5.50;;;21.30;99.90;;;21.96;nan;101273.06;4949205;29;25033;-69
2022/06/11 05:55:40;;;;;;;8.20;5.22;;;21.50;99.90;;;22.25;nan;101269.88;4951855;28;24461;-68
2022/06/11 05:58:16;;;;;;;6.05;5.32;;;21.80;99.90;;;22.76;nan;101280.03;4950203;29;24454;-68
2022/06/11 06:00:44;;;;;;;8.75;5.25;;;22.30;99.90;;;23.11;nan;101276.81;4950863;28;24437;-69
2022/06/11 06:03:12;;;;;;;5.53;4.93;;;22.70;99.40;;;23.38;nan;101275.53;4938799;29;24453;-68
2022/06/11 06:05:39;;;;;;;7.35;4.43;;;22.90;98.90;;;23.77;nan;101286.84;4931991;29;24454;-69
2022/06/11 06:08:08;;;;;;;6.32;4.80;;;23.30;98.30;;;24.07;nan;101295.75;4934979;29;24451;-68
2022/06/11 06:10:35;;;;;;;6.25;4.90;;;23.70;97.70;;;24.50;nan;101300.31;4932728;29;24481;-68
2022/06/11 06:13:45;;;;;;;5.93;5.00;;;24.10;96.90;;;24.82;nan;101299.09;4942930;28;25008;-67
2022/06/11 06:15:51;;;;;;;5.75;4.60;;;24.40;96.10;;;24.48;nan;101291.66;4941683;28;25004;-65
2022/06/11 06:18:20;;;;;;;9.65;5.32;;;24.10;95.90;;;24.53;nan;101294.59;4932547;29;24497;-68
2022/06/11 06:20:48;;;;;;;7.53;5.50;;;24.10;96.10;;;24.60;nan;101305.34;4931469;29;24450;-68
2022/06/11 06:23:15;;;;;;;6.53;4.95;;;24.20;96.00;;;24.72;nan;101303.88;4931773;29;24993;-67
2022/06/11 06:25:42;;;;;;;7.17;5.10;;;24.30;95.70;;;24.82;nan;101298.28;4937207;29;25019;-67
2022/06/11 06:28:10;;;;;;;7.03;5.03;;;24.40;95.50;;;24.92;nan;101310.31;4952462;28;20636;-66
2022/06/11 06:30:37;;;;;;;7.60;5.40;;;24.40;95.40;;;25.01;nan;101316.38;4944745;28;24449;-67
2022/06/11 06:33:04;;;;;;;7.45;5.30;;;24.50;95.40;;;24.96;nan;101302.78;4929365;29;24453;-68
2022/06/11 06:35:32;;;;;;;8.80;5.30;;;24.50;95.40;;;24.75;nan;101313.38;4931876;29;24488;-70
2022/06/11 06:37:59;;;;;;;5.47;4.97;;;24.30;95.50;;;24.42;nan;101311.06;4945592;29;24454;-68
2022/06/11 06:40:26;;;;;;;6.90;5.78;;;24.00;95.80;;;24.39;nan;101307.94;4950660;28;24434;-68
2022/06/11 06:42:53;;;;;;;6.30;5.13;;;24.00;96.20;;;24.42;nan;101303.06;4943263;29;24456;-68
2022/06/11 06:45:21;;;;;;;8.98;5.30;;;24.00;96.30;;;24.32;nan;101310.50;4935431;28;24466;-68
2022/06/11 06:47:47;;;;;;;8.85;6.00;;;23.90;96.30;;;24.36;nan;101300.31;4931570;29;24441;-68
2022/06/11 06:50:15;;;;;;;8.45;5.50;;;23.90;96.20;;;24.34;nan;101303.13;4950025;29;24457;-67
2022/06/11 06:52:42;;;;;;;7.78;5.50;;;23.90;96.30;;;24.20;nan;101309.31;4950176;28;24449;-67
2022/06/11 06:55:15;;;;;;;7.75;5.63;;;23.70;96.70;;;24.34;nan;101305.81;4943078;28;25015;-65
2022/06/11 06:57:42;;;;;;;7.60;6.00;;;23.90;96.60;;;24.56;nan;101310.22;4943333;28;24446;-67
2022/06/11 07:00:11;;;;;;;7.80;5.70;;;24.20;96.50;;;24.98;nan;101312.22;4945940;29;24454;-68
2022/06/11 07:02:38;;;;;;;8.88;5.90;;;24.50;96.20;;;27.03;nan;101306.50;4947078;28;24453;-67
2022/06/11 07:05:06;;;;;;;6.55;5.30;;;26.40;94.60;;;30.21;nan;101325.66;4932181;29;24450;-64
2022/06/11 07:07:35;;;;;;;8.20;5.35;;;29.70;90.70;;;33.11;nan;101319.13;4931970;29;24438;-68
2022/06/11 07:10:04;;;;;;;7.03;5.40;;;32.70;78.90;;;35.40;nan;101331.16;4930270;29;24442;-66
2022/06/11 07:12:31;;;;;;;4.67;4.27;;;35.10;66.60;;;37.10;nan;101325.22;4934976;29;20732;-69
2022/06/11 07:14:58;;;;;;;7.23;5.00;;;36.80;59.50;;;38.62;nan;101318.56;4942801;29;20644;-66
2022/06/11 07:17:29;;;;;;;7.63;4.97;;;38.10;54.70;;;39.68;nan;101323.44;4938800;29;20731;-67
2022/06/11 07:20:02;;;;;;;4.63;4.20;;;39.10;51.60;;;40.79;nan;101326.56;4938377;29;20991;-66
2022/06/11 07:22:40;;;;;;;5.00;4.60;;;40.20;48.90;;;41.07;nan;101332.22;4940349;28;20613;-66
2022/06/11 07:25:09;;;;;;;5.63;4.30;;;40.80;45.90;;;41.15;nan;101317.91;4957602;29;20759;-67
2022/06/11 07:27:44;;;;;;;4.40;4.10;;;40.60;45.40;;;41.59;nan;101327.31;4957375;28;21236;-64
2022/06/11 07:30:25;;;;;;;4.37;3.70;;;41.00;44.90;;;40.32;nan;101315.66;4951921;28;20642;-66
2022/06/11 07:33:00;;;;;;;3.90;3.60;;;40.10;44.30;;;39.43;nan;101308.84;4958578;28;20631;-67
2022/06/11 07:35:27;;;;;;;3.97;3.50;;;38.80;45.90;;;39.99;nan;101300.19;4956285;28;20631;-65
2022/06/11 07:37:55;;;;;;;5.47;3.67;;;39.20;45.80;;;40.06;nan;101303.41;4958231;28;20675;-64
2022/06/11 07:40:24;;;;;;;5.60;3.90;;;39.50;44.70;;;39.63;nan;101309.81;4956254;28;20655;-64
2022/06/11 07:42:51;;;;;;;3.33;2.90;;;39.20;44.50;;;41.16;nan;101303.09;4957454;28;20628;-65
2022/06/11 07:45:18;;;;;;;3.17;3.00;;;40.30;44.10;;;42.84;nan;101312.28;4948227;28;20672;-65
2022/06/11 07:47:54;;;;;;;3.73;3.40;;;42.10;43.10;;;43.79;nan;101311.94;4939226;28;21206;-65
2022/06/11 07:50:35;;;;;;;2.80;2.60;;;43.30;41.40;;;44.15;nan;101319.25;4955000;29;20686;-66
2022/06/11 07:53:04;;;;;;;3.17;2.97;;;43.60;40.90;;;43.83;nan;101317.63;4957687;28;20642;-66
2022/06/11 07:55:34;;;;;;;2.90;2.77;;;43.40;40.00;;;42.59;nan;101310.13;4947704;28;20643;-65
2022/06/11 07:58:02;;;;;;;3.00;2.80;;;42.50;38.90;;;42.95;nan;101307.41;4956398;28;20667;-66
2022/06/11 08:00:40;;;;;;;2.57;2.47;;;42.10;39.50;;;43.63;nan;101312.63;4956221;29;20631;-65
2022/06/11 08:03:08;;;;;;;4.47;3.13;;;43.10;39.00;;;43.76;nan;101312.56;4957567;28;21189;-65
2022/06/11 08:05:36;;;;;;;5.63;3.20;;;43.00;38.80;;;44.54;nan;101316.44;4955711;28;20705;-64
2022/06/11 08:08:07;;;;;;;2.70;2.53;;;43.80;38.90;;;44.95;nan;101311.34;4956372;28;20640;-65
2022/06/11 08:10:37;;;;;;;3.23;2.70;;;44.30;38.30;;;44.61;nan;101300.28;4956496;28;20612;-65
2022/06/11 08:13:05;;;;;;;3.57;3.00;;;43.80;38.50;;;44.86;nan;101305.03;4956389;28;20651;-64
2022/06/11 08:15:33;;;;;;;3.60;2.33;;;44.20;37.70;;;45.45;nan;101303.38;4955299;28;20650;-66
2022/06/11 08:18:01;;;;;;;3.33;3.03;;;44.60;37.60;;;46.36;nan;101302.94;4956469;28;20656;-65
2022/06/11 08:20:31;;;;;;;3.20;2.90;;;45.70;37.40;;;47.06;nan;101304.91;4949965;28;20645;-65
2022/06/11 08:22:59;;;;;;;2.77;2.60;;;46.50;36.50;;;47.76;nan;101301.91;4938436;29;21176;-65
2022/06/11 08:25:27;;;;;;;2.77;2.57;;;47.20;36.10;;;48.36;nan;101309.44;4932348;29;20629;-64
2022/06/11 08:27:55;;;;;;;5.07;2.80;;;47.80;35.90;;;48.91;nan;101304.06;4934025;29;20671;-64
2022/06/11 08:30:25;;;;;;;2.70;2.60;;;48.40;35.70;;;48.29;nan;101304.50;4942373;29;20620;-66
2022/06/11 08:32:54;;;;;;;2.50;2.43;;;47.90;35.30;;;47.13;nan;101303.22;4939432;29;20721;-63
2022/06/11 08:35:26;;;;;;;2.87;2.67;;;46.90;35.20;;;47.58;nan;101303.22;4942958;29;20640;-67
2022/06/11 08:37:54;;;;;;;2.60;2.40;;;47.30;35.00;;;46.15;nan;101300.13;4939068;29;20668;-64
2022/06/11 08:40:44;;;;;;;2.33;2.23;;;45.40;35.70;;;46.38;nan;101306.16;4933179;29;20652;-65
2022/06/11 08:43:19;;;;;;;2.00;1.83;;;45.80;34.60;;;46.70;nan;101311.84;4942547;29;20650;-64
2022/06/11 08:45:53;;;;;;;2.40;2.30;;;45.90;34.70;;;47.80;nan;101305.63;4932779;28;20660;-64
2022/06/11 08:48:42;;;;;;;2.60;2.40;;;46.90;34.70;;;47.75;nan;101302.28;4931620;29;21006;-62
2022/06/11 08:51:16;;;;;;;3.20;2.03;;;47.20;34.40;;;48.46;nan;101305.41;4931763;29;20647;-66
2022/06/11 08:53:44;;;;;;;2.50;2.40;;;47.60;34.40;;;49.06;nan;101301.69;4941770;28;20627;-66
2022/06/11 08:56:40;;;;;;;4.73;3.03;;;48.20;34.40;;;49.63;nan;101299.31;4940219;29;20668;-63
2022/06/11 08:59:49;;;;;;;3.83;2.13;;;48.90;34.10;;;49.19;nan;101293.00;4944109;29;20990;-66
2022/06/11 09:02:49;;;;;;;2.60;2.00;;;48.50;33.80;;;49.21;nan;101287.91;4931944;29;21197;-64
2022/06/11 09:05:48;;;;;;;2.00;2.00;;;48.30;33.60;;;50.16;nan;101289.53;4949810;28;20640;-65
2022/06/11 09:08:37;;;;;;;3.03;2.30;;;49.40;33.50;;;51.47;nan;101293.97;4952447;29;20739;-67
2022/06/11 09:11:16;;;;;;;2.50;2.30;;;50.70;33.10;;;51.35;nan;101285.78;4937292;29;20628;-65
2022/06/11 09:14:32;;;;;;;1.90;1.87;;;51.00;32.20;;;49.83;nan;101281.66;4944965;29;20639;-66
2022/06/11 09:17:31;;;;;;;2.73;2.20;;;49.70;32.70;;;49.48;nan;101284.28;4944724;29;20649;-66
2022/06/11 09:20:09;;;;;;;2.00;1.90;;;48.60;33.10;;;50.93;nan;101277.44;4940868;29;21035;-65
2022/06/11 09:22:58;;;;;;;1.80;1.73;;;50.10;32.80;;;51.84;nan;101281.13;4933206;29;20632;-65
2022/06/11 09:25:31;;;;;;;3.00;1.70;;;51.20;32.10;;;52.13;nan;101282.38;4941050;29;20643;-65
2022/06/11 09:28:31;;;;;;;1.90;1.90;;;52.00;31.00;;;52.89;nan;101280.25;4938440;28;20680;-67
2022/06/11 09:31:31;;;;;;;1.60;1.60;;;52.30;31.10;;;53.06;nan;101276.84;4948617;29;20650;-65
2022/06/11 09:34:15;;;;;;;1.80;1.70;;;52.50;30.70;;;52.12;nan;101283.53;4952483;29;20781;-68
2022/06/11 09:36:50;;;;;;;1.97;1.83;;;51.60;30.60;;;51.20;nan;101267.28;4939806;28;20672;-64
2022/06/11 09:39:42;;;;;;;1.63;1.63;;;50.30;31.10;;;52.54;nan;101284.19;4952871;28;20635;-64
2022/06/11 09:42:24;;;;;;;2.00;2.00;;;51.70;30.90;;;53.04;nan;101276.44;4947991;29;20636;-64
2022/06/11 09:45:12;;;;;;;10.60;2.30;;;52.30;30.70;;;51.15;nan;101275.88;4941577;29;20655;-65
2022/06/11 09:48:00;;;;;;;2.30;2.20;;;51.00;31.00;;;49.29;nan;101261.97;4945709;28;21217;-64
2022/06/11 09:50:45;;;;;;;2.60;2.40;;;49.70;31.40;;;48.61;nan;101263.16;4939378;28;20629;-64
2022/06/11 09:53:21;;;;;;;2.13;2.13;;;48.30;32.00;;;48.57;nan;101268.59;4932485;29;20647;-65
2022/06/11 09:56:07;;;;;;;2.57;2.40;;;48.00;32.40;;;47.56;nan;101261.28;4932166;29;21003;-64
2022/06/11 09:59:13;;;;;;;2.73;2.27;;;46.90;32.50;;;47.38;nan;101262.66;4933130;29;20644;-64
2022/06/11 10:01:50;;;;;;;2.60;2.50;;;47.30;32.70;;;47.80;nan;101258.59;4933269;29;20629;-64
2022/06/11 10:04:25;;;;;;;2.03;1.93;;;47.20;32.60;;;47.70;nan;101255.44;4939712;29;20675;-64
2022/06/11 10:07:00;;;;;;;2.50;2.30;;;47.30;32.70;;;46.02;nan;101257.00;4945635;29;20675;-64
2022/06/11 10:09:32;;;;;;;1.80;1.70;;;45.80;33.00;;;43.92;nan;101249.72;4948619;29;20616;-64
2022/06/11 10:12:18;;;;;;;4.13;3.87;;;44.30;33.30;;;43.14;nan;101245.72;4943113;29;20637;-64
2022/06/11 10:15:20;;;;;;;2.50;2.40;;;42.60;34.00;;;41.90;nan;101247.31;4944387;29;20998;-65
2022/06/11 10:18:14;;;;;;;6.30;5.63;;;41.70;35.20;;;40.24;nan;101243.31;4940176;29;20667;-66
2022/06/11 10:20:56;;;;;;;2.60;2.50;;;39.90;36.40;;;39.59;nan;101240.47;4942695;29;20663;-66
2022/06/11 10:23:51;;;;;;;2.43;2.33;;;38.70;37.70;;;39.04;nan;101239.78;4951552;29;20647;-68
2022/06/11 10:26:36;;;;;;;2.77;2.30;;;38.30;38.40;;;38.51;nan;101243.34;4944136;29;20679;-68
2022/06/11 10:29:39;;;;;;;2.00;1.90;;;37.50;38.80;;;37.92;nan;101235.13;4937092;29;20636;-67
2022/06/11 10:32:30;;;;;;;3.47;2.20;;;36.90;39.20;;;37.17;nan;101241.41;4944996;29;20631;-66
2022/06/11 10:35:16;;;;;;;1.90;1.80;;;36.30;39.60;;;35.91;nan;101230.03;4943708;29;20628;-64
2022/06/11 10:38:09;;;;;;;2.43;2.10;;;35.20;40.70;;;35.37;nan;101234.81;4985854;23;20710;-64
2022/06/11 10:40:46;;;;;;;2.57;2.43;;;34.40;41.70;;;35.36;nan;101235.06;4947301;29;20636;-64
2022/06/11 10:43:23;;;;;;;16.90;11.27;;;34.30;42.80;;;35.09;nan;101235.09;4951527;29;21009;-64
2022/06/11 10:45:50;;;;;;;5.33;3.07;;;34.20;42.60;;;34.28;nan;101234.16;4936347;28;21214;-66
2022/06/11 10:48:21;;;;;;;2.27;2.10;;;33.40;43.20;;;33.42;nan;101232.03;4932735;29;21043;-64
2022/06/11 10:50:49;;;;;;;2.93;2.67;;;32.80;44.00;;;33.53;nan;101228.44;4940217;29;20641;-64
2022/06/11 10:53:34;;;;;;;2.80;2.60;;;32.60;44.80;;;32.64;nan;101228.44;4952599;28;20636;-63
2022/06/11 10:56:09;;;;;;;2.20;2.03;;;32.10;45.00;;;32.68;nan;101227.72;4951553;29;20628;-63
2022/06/11 10:58:48;;;;;;;2.30;2.20;;;31.70;45.30;;;32.08;nan;101219.16;4952732;28;20726;-63
2022/06/11 11:01:44;;;;;;;4.50;2.70;;;31.30;45.60;;;31.88;nan;101217.88;4953017;28;20643;-63
2022/06/11 11:04:14;;;;;;;3.53;2.67;;;31.10;46.70;;;31.31;nan;101209.47;4948267;29;20628;-63
2022/06/11 11:06:42;;;;;;;4.60;2.33;;;30.50;47.30;;;31.61;nan;101216.66;4952778;28;20680;-63
2022/06/11 11:09:23;;;;;;;2.50;2.40;;;30.70;46.90;;;31.32;nan;101213.00;4951378;29;20624;-63
2022/06/11 11:11:57;;;;;;;2.60;2.40;;;30.50;47.00;;;31.80;nan;101208.22;4952411;28;21217;-62